sensor_id;sensor_type;location;lat;lon;timestamp;P1;durP1;ratioP1;P2;durP2;ratioP2
10523;SDS011;5310;48.638;9.060;2023-05-10T00:02:13;0.80;;;0.80;;
10523;SDS011;5310;48.638;9.060;2023-05-10T00:04:39;0.63;;;0.63;;
10523;SDS011;5310;48.638;9.060;2023-05-10T00:07:05;0.63;;;0.63;;
10523;SDS011;5310;48.638;9.060;2023-05-10T00:09:31;0.67;;;0.67;;
10523;SDS011;5310;48.638;9.060;2023-05-10T00:11:57;0.70;;;0.70;;
10523;SDS011;5310;48.638;9.060;2023-05-10T00:14:23;0.60;;;0.60;;
10523;SDS011;5310;48.638;9.060;2023-05-10T00:16:49;0.60;;;0.60;;
10523;SDS011;5310;48.638;9.060;2023-05-10T00:19:15;0.60;;;0.60;;
10523;SDS011;5310;48.638;9.060;2023-05-10T00:21:41;0.80;;;0.80;;
10523;SDS011;5310;48.638;9.060;2023-05-10T00:24:07;0.90;;;0.90;;
10523;SDS011;5310;48.638;9.060;2023-05-10T00:26:33;0.73;;;0.73;;
10523;SDS011;5310;48.638;9.060;2023-05-10T00:28:59;0.60;;;0.60;;
10523;SDS011;5310;48.638;9.060;2023-05-10T00:31:25;0.70;;;0.70;;
10523;SDS011;5310;48.638;9.060;2023-05-10T00:33:51;0.60;;;0.60;;
10523;SDS011;5310;48.638;9.060;2023-05-10T00:36:17;0.60;;;0.60;;
10523;SDS011;5310;48.638;9.060;2023-05-10T00:38:43;0.60;;;0.60;;
10523;SDS011;5310;48.638;9.060;2023-05-10T00:41:09;0.70;;;0.70;;
10523;SDS011;5310;48.638;9.060;2023-05-10T00:43:35;0.70;;;0.70;;
10523;SDS011;5310;48.638;9.060;2023-05-10T00:46:01;0.80;;;0.80;;
10523;SDS011;5310;48.638;9.060;2023-05-10T00:48:28;0.70;;;0.70;;
10523;SDS011;5310;48.638;9.060;2023-05-10T00:50:54;0.90;;;0.90;;
10523;SDS011;5310;48.638;9.060;2023-05-10T00:53:20;0.70;;;0.70;;
10523;SDS011;5310;48.638;9.060;2023-05-10T00:55:47;0.70;;;0.70;;
10523;SDS011;5310;48.638;9.060;2023-05-10T00:58:13;0.77;;;0.77;;
10523;SDS011;5310;48.638;9.060;2023-05-10T01:00:39;0.80;;;0.80;;
10523;SDS011;5310;48.638;9.060;2023-05-10T01:03:08;0.80;;;0.80;;
10523;SDS011;5310;48.638;9.060;2023-05-10T01:05:34;0.70;;;0.70;;
10523;SDS011;5310;48.638;9.060;2023-05-10T01:08:00;0.80;;;0.80;;
10523;SDS011;5310;48.638;9.060;2023-05-10T01:10:26;0.70;;;0.70;;
10523;SDS011;5310;48.638;9.060;2023-05-10T01:12:52;0.70;;;0.70;;
10523;SDS011;5310;48.638;9.060;2023-05-10T01:15:18;0.70;;;0.70;;
10523;SDS011;5310;48.638;9.060;2023-05-10T01:17:45;0.60;;;0.60;;
10523;SDS011;5310;48.638;9.060;2023-05-10T01:20:12;0.70;;;0.70;;
10523;SDS011;5310;48.638;9.060;2023-05-10T01:22:42;0.80;;;0.80;;
10523;SDS011;5310;48.638;9.060;2023-05-10T01:25:28;0.70;;;0.70;;
10523;SDS011;5310;48.638;9.060;2023-05-10T01:28:16;0.60;;;0.60;;
10523;SDS011;5310;48.638;9.060;2023-05-10T01:33:24;0.70;;;0.70;;
10523;SDS011;5310;48.638;9.060;2023-05-10T01:38:47;0.70;;;0.70;;
10523;SDS011;5310;48.638;9.060;2023-05-10T01:41:22;0.70;;;0.70;;
10523;SDS011;5310;48.638;9.060;2023-05-10T01:46:40;0.60;;;0.60;;
10523;SDS011;5310;48.638;9.060;2023-05-10T01:49:10;0.60;;;0.60;;
10523;SDS011;5310;48.638;9.060;2023-05-10T01:51:48;0.83;;;0.80;;
10523;SDS011;5310;48.638;9.060;2023-05-10T01:54:17;0.70;;;0.70;;
10523;SDS011;5310;48.638;9.060;2023-05-10T01:56:45;0.60;;;0.60;;
10523;SDS011;5310;48.638;9.060;2023-05-10T01:59:15;0.80;;;0.80;;
10523;SDS011;5310;48.638;9.060;2023-05-10T02:01:43;0.70;;;0.70;;
10523;SDS011;5310;48.638;9.060;2023-05-10T02:04:11;0.80;;;0.80;;
10523;SDS011;5310;48.638;9.060;2023-05-10T02:06:39;0.70;;;0.70;;
10523;SDS011;5310;48.638;9.060;2023-05-10T02:09:05;0.77;;;0.77;;
10523;SDS011;5310;48.638;9.060;2023-05-10T02:11:32;0.93;;;0.93;;
10523;SDS011;5310;48.638;9.060;2023-05-10T02:13:59;1.00;;;1.00;;
10523;SDS011;5310;48.638;9.060;2023-05-10T02:16:26;0.90;;;0.90;;
10523;SDS011;5310;48.638;9.060;2023-05-10T02:18:55;0.90;;;0.90;;
10523;SDS011;5310;48.638;9.060;2023-05-10T02:21:22;0.90;;;0.90;;
10523;SDS011;5310;48.638;9.060;2023-05-10T02:23:48;0.90;;;0.90;;
10523;SDS011;5310;48.638;9.060;2023-05-10T02:26:16;0.90;;;0.90;;
10523;SDS011;5310;48.638;9.060;2023-05-10T02:28:46;0.80;;;0.80;;
10523;SDS011;5310;48.638;9.060;2023-05-10T02:31:12;0.70;;;0.70;;
10523;SDS011;5310;48.638;9.060;2023-05-10T02:33:38;0.90;;;0.90;;
10523;SDS011;5310;48.638;9.060;2023-05-10T02:36:05;0.80;;;0.80;;
10523;SDS011;5310;48.638;9.060;2023-05-10T02:38:32;0.80;;;0.80;;
10523;SDS011;5310;48.638;9.060;2023-05-10T02:40:59;0.80;;;0.80;;
10523;SDS011;5310;48.638;9.060;2023-05-10T02:43:27;0.80;;;0.80;;
10523;SDS011;5310;48.638;9.060;2023-05-10T02:45:54;0.80;;;0.80;;
10523;SDS011;5310;48.638;9.060;2023-05-10T02:48:20;0.73;;;0.73;;
10523;SDS011;5310;48.638;9.060;2023-05-10T02:50:46;0.80;;;0.80;;
10523;SDS011;5310;48.638;9.060;2023-05-10T02:53:18;0.80;;;0.80;;
10523;SDS011;5310;48.638;9.060;2023-05-10T02:55:48;0.80;;;0.80;;
10523;SDS011;5310;48.638;9.060;2023-05-10T02:58:16;0.80;;;0.80;;
10523;SDS011;5310;48.638;9.060;2023-05-10T03:00:44;0.90;;;0.90;;
10523;SDS011;5310;48.638;9.060;2023-05-10T03:03:11;0.97;;;0.97;;
10523;SDS011;5310;48.638;9.060;2023-05-10T03:05:37;1.00;;;1.00;;
10523;SDS011;5310;48.638;9.060;2023-05-10T03:08:03;0.80;;;0.80;;
10523;SDS011;5310;48.638;9.060;2023-05-10T03:10:29;0.80;;;0.80;;
10523;SDS011;5310;48.638;9.060;2023-05-10T03:13:06;0.90;;;0.90;;
10523;SDS011;5310;48.638;9.060;2023-05-10T03:15:42;1.00;;;1.00;;
10523;SDS011;5310;48.638;9.060;2023-05-10T03:18:18;0.90;;;0.90;;
10523;SDS011;5310;48.638;9.060;2023-05-10T03:20:47;0.73;;;0.73;;
10523;SDS011;5310;48.638;9.060;2023-05-10T03:25:43;1.10;;;1.10;;
10523;SDS011;5310;48.638;9.060;2023-05-10T03:28:11;0.90;;;0.90;;
10523;SDS011;5310;48.638;9.060;2023-05-10T03:30:37;1.00;;;1.00;;
10523;SDS011;5310;48.638;9.060;2023-05-10T03:33:04;1.00;;;1.00;;
10523;SDS011;5310;48.638;9.060;2023-05-10T03:35:31;0.93;;;0.93;;
10523;SDS011;5310;48.638;9.060;2023-05-10T03:37:57;1.10;;;1.10;;
10523;SDS011;5310;48.638;9.060;2023-05-10T03:40:23;0.73;;;0.73;;
10523;SDS011;5310;48.638;9.060;2023-05-10T03:42:50;0.90;;;0.90;;
10523;SDS011;5310;48.638;9.060;2023-05-10T03:45:16;0.90;;;0.90;;
10523;SDS011;5310;48.638;9.060;2023-05-10T03:47:42;0.73;;;0.73;;
10523;SDS011;5310;48.638;9.060;2023-05-10T03:50:08;0.93;;;0.93;;
10523;SDS011;5310;48.638;9.060;2023-05-10T03:52:35;0.97;;;0.97;;
10523;SDS011;5310;48.638;9.060;2023-05-10T03:55:01;1.00;;;1.00;;
10523;SDS011;5310;48.638;9.060;2023-05-10T03:57:28;1.10;;;1.10;;
10523;SDS011;5310;48.638;9.060;2023-05-10T03:59:54;1.20;;;1.20;;
10523;SDS011;5310;48.638;9.060;2023-05-10T04:02:20;1.20;;;1.20;;
10523;SDS011;5310;48.638;9.060;2023-05-10T04:04:46;1.20;;;1.20;;
10523;SDS011;5310;48.638;9.060;2023-05-10T04:07:13;1.10;;;1.10;;
10523;SDS011;5310;48.638;9.060;2023-05-10T04:09:39;1.00;;;1.00;;
10523;SDS011;5310;48.638;9.060;2023-05-10T04:12:05;1.20;;;1.20;;
10523;SDS011;5310;48.638;9.060;2023-05-10T04:14:31;1.03;;;1.03;;
10523;SDS011;5310;48.638;9.060;2023-05-10T04:16:57;1.00;;;1.00;;
10523;SDS011;5310;48.638;9.060;2023-05-10T04:19:23;1.00;;;1.00;;
10523;SDS011;5310;48.638;9.060;2023-05-10T04:21:49;1.20;;;1.20;;
10523;SDS011;5310;48.638;9.060;2023-05-10T04:24:15;1.03;;;1.03;;
10523;SDS011;5310;48.638;9.060;2023-05-10T04:26:41;0.80;;;0.80;;
10523;SDS011;5310;48.638;9.060;2023-05-10T04:29:07;0.90;;;0.90;;
10523;SDS011;5310;48.638;9.060;2023-05-10T04:31:33;1.00;;;1.00;;
10523;SDS011;5310;48.638;9.060;2023-05-10T04:34:01;1.00;;;1.00;;
10523;SDS011;5310;48.638;9.060;2023-05-10T04:36:27;1.10;;;1.10;;
10523;SDS011;5310;48.638;9.060;2023-05-10T04:38:53;1.00;;;1.00;;
10523;SDS011;5310;48.638;9.060;2023-05-10T04:41:19;0.83;;;0.83;;
10523;SDS011;5310;48.638;9.060;2023-05-10T04:43:45;0.80;;;0.80;;
10523;SDS011;5310;48.638;9.060;2023-05-10T04:46:14;1.00;;;1.00;;
10523;SDS011;5310;48.638;9.060;2023-05-10T04:48:40;0.90;;;0.90;;
10523;SDS011;5310;48.638;9.060;2023-05-10T04:51:06;0.80;;;0.80;;
10523;SDS011;5310;48.638;9.060;2023-05-10T04:53:32;0.73;;;0.73;;
10523;SDS011;5310;48.638;9.060;2023-05-10T04:55:58;0.90;;;0.90;;
10523;SDS011;5310;48.638;9.060;2023-05-10T04:58:24;1.10;;;1.10;;
10523;SDS011;5310;48.638;9.060;2023-05-10T05:00:50;0.93;;;0.93;;
10523;SDS011;5310;48.638;9.060;2023-05-10T05:03:16;0.90;;;0.90;;
10523;SDS011;5310;48.638;9.060;2023-05-10T05:05:42;0.90;;;0.90;;
10523;SDS011;5310;48.638;9.060;2023-05-10T05:08:09;1.00;;;1.00;;
10523;SDS011;5310;48.638;9.060;2023-05-10T05:10:35;1.10;;;1.10;;
10523;SDS011;5310;48.638;9.060;2023-05-10T05:13:01;0.90;;;0.90;;
10523;SDS011;5310;48.638;9.060;2023-05-10T05:15:27;1.07;;;1.07;;
10523;SDS011;5310;48.638;9.060;2023-05-10T05:17:53;1.00;;;1.00;;
10523;SDS011;5310;48.638;9.060;2023-05-10T05:20:19;0.90;;;0.90;;
10523;SDS011;5310;48.638;9.060;2023-05-10T05:22:45;0.97;;;0.97;;
10523;SDS011;5310;48.638;9.060;2023-05-10T05:25:11;0.80;;;0.80;;
10523;SDS011;5310;48.638;9.060;2023-05-10T05:27:37;1.00;;;1.00;;
10523;SDS011;5310;48.638;9.060;2023-05-10T05:30:03;1.00;;;1.00;;
10523;SDS011;5310;48.638;9.060;2023-05-10T05:32:30;1.10;;;1.10;;
10523;SDS011;5310;48.638;9.060;2023-05-10T05:34:56;1.00;;;1.00;;
10523;SDS011;5310;48.638;9.060;2023-05-10T05:37:21;1.00;;;1.00;;
10523;SDS011;5310;48.638;9.060;2023-05-10T05:39:49;0.90;;;0.90;;
10523;SDS011;5310;48.638;9.060;2023-05-10T05:42:15;0.90;;;0.90;;
10523;SDS011;5310;48.638;9.060;2023-05-10T05:44:42;0.90;;;0.90;;
10523;SDS011;5310;48.638;9.060;2023-05-10T05:47:09;0.70;;;0.70;;
10523;SDS011;5310;48.638;9.060;2023-05-10T05:49:35;0.70;;;0.70;;
10523;SDS011;5310;48.638;9.060;2023-05-10T05:52:02;0.60;;;0.60;;
10523;SDS011;5310;48.638;9.060;2023-05-10T05:54:28;0.60;;;0.60;;
10523;SDS011;5310;48.638;9.060;2023-05-10T05:56:55;0.60;;;0.60;;
10523;SDS011;5310;48.638;9.060;2023-05-10T05:59:24;0.93;;;0.93;;
10523;SDS011;5310;48.638;9.060;2023-05-10T06:01:50;1.10;;;1.10;;
10523;SDS011;5310;48.638;9.060;2023-05-10T06:04:16;0.90;;;0.90;;
10523;SDS011;5310;48.638;9.060;2023-05-10T06:06:42;0.90;;;0.90;;
10523;SDS011;5310;48.638;9.060;2023-05-10T06:09:08;1.00;;;1.00;;
10523;SDS011;5310;48.638;9.060;2023-05-10T06:11:34;0.80;;;0.80;;
10523;SDS011;5310;48.638;9.060;2023-05-10T06:14:00;1.00;;;1.00;;
10523;SDS011;5310;48.638;9.060;2023-05-10T06:16:27;0.90;;;0.90;;
10523;SDS011;5310;48.638;9.060;2023-05-10T06:18:53;0.97;;;0.97;;
10523;SDS011;5310;48.638;9.060;2023-05-10T06:21:19;1.00;;;1.00;;
10523;SDS011;5310;48.638;9.060;2023-05-10T06:23:45;1.00;;;1.00;;
10523;SDS011;5310;48.638;9.060;2023-05-10T06:26:11;1.00;;;1.00;;
10523;SDS011;5310;48.638;9.060;2023-05-10T06:28:38;0.90;;;0.90;;
10523;SDS011;5310;48.638;9.060;2023-05-10T06:31:05;1.00;;;1.00;;
10523;SDS011;5310;48.638;9.060;2023-05-10T06:33:31;0.90;;;0.90;;
10523;SDS011;5310;48.638;9.060;2023-05-10T06:35:57;1.10;;;1.10;;
10523;SDS011;5310;48.638;9.060;2023-05-10T06:38:23;1.00;;;1.00;;
10523;SDS011;5310;48.638;9.060;2023-05-10T06:40:49;1.00;;;1.00;;
10523;SDS011;5310;48.638;9.060;2023-05-10T06:43:15;0.90;;;0.90;;
10523;SDS011;5310;48.638;9.060;2023-05-10T06:45:41;1.10;;;1.10;;
10523;SDS011;5310;48.638;9.060;2023-05-10T06:48:07;1.00;;;1.00;;
10523;SDS011;5310;48.638;9.060;2023-05-10T06:50:33;0.93;;;0.93;;
10523;SDS011;5310;48.638;9.060;2023-05-10T06:52:59;1.00;;;1.00;;
10523;SDS011;5310;48.638;9.060;2023-05-10T06:55:26;1.10;;;1.10;;
10523;SDS011;5310;48.638;9.060;2023-05-10T06:57:52;1.00;;;1.00;;
10523;SDS011;5310;48.638;9.060;2023-05-10T07:00:19;1.00;;;1.00;;
10523;SDS011;5310;48.638;9.060;2023-05-10T07:02:45;1.00;;;1.00;;
10523;SDS011;5310;48.638;9.060;2023-05-10T07:05:11;0.97;;;0.97;;
10523;SDS011;5310;48.638;9.060;2023-05-10T07:07:37;1.07;;;1.07;;
10523;SDS011;5310;48.638;9.060;2023-05-10T07:10:03;0.90;;;0.90;;
10523;SDS011;5310;48.638;9.060;2023-05-10T07:12:29;1.10;;;1.10;;
10523;SDS011;5310;48.638;9.060;2023-05-10T07:14:55;1.00;;;1.00;;
10523;SDS011;5310;48.638;9.060;2023-05-10T07:17:21;1.00;;;1.00;;
10523;SDS011;5310;48.638;9.060;2023-05-10T07:19:47;0.93;;;0.93;;
10523;SDS011;5310;48.638;9.060;2023-05-10T07:22:14;0.97;;;0.97;;
10523;SDS011;5310;48.638;9.060;2023-05-10T07:24:40;0.90;;;0.90;;
10523;SDS011;5310;48.638;9.060;2023-05-10T07:27:06;0.90;;;0.90;;
10523;SDS011;5310;48.638;9.060;2023-05-10T07:29:32;1.00;;;1.00;;
10523;SDS011;5310;48.638;9.060;2023-05-10T07:31:58;1.00;;;1.00;;
10523;SDS011;5310;48.638;9.060;2023-05-10T07:34:24;1.00;;;1.00;;
10523;SDS011;5310;48.638;9.060;2023-05-10T07:36:50;0.90;;;0.90;;
10523;SDS011;5310;48.638;9.060;2023-05-10T07:39:16;0.90;;;0.90;;
10523;SDS011;5310;48.638;9.060;2023-05-10T07:41:42;0.93;;;0.93;;
10523;SDS011;5310;48.638;9.060;2023-05-10T07:44:08;0.90;;;0.90;;
10523;SDS011;5310;48.638;9.060;2023-05-10T07:46:34;0.90;;;0.90;;
10523;SDS011;5310;48.638;9.060;2023-05-10T07:49:00;0.90;;;0.90;;
10523;SDS011;5310;48.638;9.060;2023-05-10T07:51:26;1.00;;;1.00;;
10523;SDS011;5310;48.638;9.060;2023-05-10T07:53:53;0.90;;;0.90;;
10523;SDS011;5310;48.638;9.060;2023-05-10T07:58:47;1.20;;;1.10;;
10523;SDS011;5310;48.638;9.060;2023-05-10T08:01:13;0.80;;;0.80;;
10523;SDS011;5310;48.638;9.060;2023-05-10T08:03:39;1.10;;;1.10;;
10523;SDS011;5310;48.638;9.060;2023-05-10T08:06:05;1.00;;;1.00;;
10523;SDS011;5310;48.638;9.060;2023-05-10T08:08:31;1.00;;;1.00;;
10523;SDS011;5310;48.638;9.060;2023-05-10T08:10:57;1.00;;;1.00;;
10523;SDS011;5310;48.638;9.060;2023-05-10T08:13:23;0.90;;;0.90;;
10523;SDS011;5310;48.638;9.060;2023-05-10T08:15:49;1.00;;;1.00;;
10523;SDS011;5310;48.638;9.060;2023-05-10T08:18:17;1.00;;;1.00;;
10523;SDS011;5310;48.638;9.060;2023-05-10T08:20:43;1.20;;;1.10;;
10523;SDS011;5310;48.638;9.060;2023-05-10T08:23:09;1.00;;;1.00;;
10523;SDS011;5310;48.638;9.060;2023-05-10T08:25:36;0.90;;;0.90;;
10523;SDS011;5310;48.638;9.060;2023-05-10T08:28:02;0.90;;;0.90;;
10523;SDS011;5310;48.638;9.060;2023-05-10T08:30:28;1.07;;;1.07;;
10523;SDS011;5310;48.638;9.060;2023-05-10T08:32:54;1.00;;;1.00;;
10523;SDS011;5310;48.638;9.060;2023-05-10T08:35:20;1.00;;;1.00;;
10523;SDS011;5310;48.638;9.060;2023-05-10T08:37:45;0.90;;;0.90;;
10523;SDS011;5310;48.638;9.060;2023-05-10T08:40:11;1.00;;;1.00;;
10523;SDS011;5310;48.638;9.060;2023-05-10T08:42:39;0.90;;;0.90;;
10523;SDS011;5310;48.638;9.060;2023-05-10T08:45:08;1.00;;;1.00;;
10523;SDS011;5310;48.638;9.060;2023-05-10T08:47:36;0.90;;;0.90;;
10523;SDS011;5310;48.638;9.060;2023-05-10T08:50:03;0.93;;;0.93;;
10523;SDS011;5310;48.638;9.060;2023-05-10T08:52:29;1.00;;;1.00;;
10523;SDS011;5310;48.638;9.060;2023-05-10T08:54:56;1.20;;;1.20;;
10523;SDS011;5310;48.638;9.060;2023-05-10T08:57:22;1.10;;;1.10;;
10523;SDS011;5310;48.638;9.060;2023-05-10T08:59:48;1.30;;;1.23;;
10523;SDS011;5310;48.638;9.060;2023-05-10T09:02:14;1.10;;;1.10;;
10523;SDS011;5310;48.638;9.060;2023-05-10T09:04:40;1.00;;;1.00;;
10523;SDS011;5310;48.638;9.060;2023-05-10T09:07:06;1.10;;;1.10;;
10523;SDS011;5310;48.638;9.060;2023-05-10T09:09:33;1.20;;;1.20;;
10523;SDS011;5310;48.638;9.060;2023-05-10T09:11:59;1.13;;;1.13;;
10523;SDS011;5310;48.638;9.060;2023-05-10T09:14:25;1.00;;;1.00;;
10523;SDS011;5310;48.638;9.060;2023-05-10T09:16:51;1.20;;;1.20;;
10523;SDS011;5310;48.638;9.060;2023-05-10T09:19:19;1.00;;;1.00;;
10523;SDS011;5310;48.638;9.060;2023-05-10T09:21:45;1.07;;;1.07;;
10523;SDS011;5310;48.638;9.060;2023-05-10T09:24:11;1.00;;;1.00;;
10523;SDS011;5310;48.638;9.060;2023-05-10T09:26:45;0.90;;;0.90;;
10523;SDS011;5310;48.638;9.060;2023-05-10T09:29:12;1.10;;;1.10;;
10523;SDS011;5310;48.638;9.060;2023-05-10T09:31:48;1.00;;;1.00;;
10523;SDS011;5310;48.638;9.060;2023-05-10T09:34:19;1.00;;;1.00;;
10523;SDS011;5310;48.638;9.060;2023-05-10T09:36:52;1.00;;;1.00;;
10523;SDS011;5310;48.638;9.060;2023-05-10T09:39:18;1.10;;;1.10;;
10523;SDS011;5310;48.638;9.060;2023-05-10T09:41:44;1.10;;;1.10;;
10523;SDS011;5310;48.638;9.060;2023-05-10T09:44:10;1.00;;;1.00;;
10523;SDS011;5310;48.638;9.060;2023-05-10T09:46:37;1.10;;;1.10;;
10523;SDS011;5310;48.638;9.060;2023-05-10T09:49:03;1.00;;;1.00;;
10523;SDS011;5310;48.638;9.060;2023-05-10T09:51:34;0.80;;;0.80;;
10523;SDS011;5310;48.638;9.060;2023-05-10T09:54:10;0.80;;;0.80;;
10523;SDS011;5310;48.638;9.060;2023-05-10T09:56:36;0.80;;;0.80;;
10523;SDS011;5310;48.638;9.060;2023-05-10T09:59:05;0.83;;;0.83;;
10523;SDS011;5310;48.638;9.060;2023-05-10T10:01:34;0.80;;;0.80;;
10523;SDS011;5310;48.638;9.060;2023-05-10T10:04:04;1.10;;;1.10;;
10523;SDS011;5310;48.638;9.060;2023-05-10T10:06:34;1.10;;;1.10;;
10523;SDS011;5310;48.638;9.060;2023-05-10T10:09:00;1.10;;;1.10;;
10523;SDS011;5310;48.638;9.060;2023-05-10T10:11:26;0.80;;;0.80;;
10523;SDS011;5310;48.638;9.060;2023-05-10T10:13:52;1.00;;;1.00;;
10523;SDS011;5310;48.638;9.060;2023-05-10T10:16:18;0.90;;;0.90;;
10523;SDS011;5310;48.638;9.060;2023-05-10T10:18:45;1.00;;;1.00;;
10523;SDS011;5310;48.638;9.060;2023-05-10T10:21:12;0.90;;;0.90;;
10523;SDS011;5310;48.638;9.060;2023-05-10T10:23:39;1.10;;;1.10;;
10523;SDS011;5310;48.638;9.060;2023-05-10T10:26:05;0.97;;;0.97;;
10523;SDS011;5310;48.638;9.060;2023-05-10T10:28:45;0.90;;;0.90;;
10523;SDS011;5310;48.638;9.060;2023-05-10T10:34:08;1.10;;;1.10;;
10523;SDS011;5310;48.638;9.060;2023-05-10T10:36:43;0.80;;;0.80;;
10523;SDS011;5310;48.638;9.060;2023-05-10T10:39:10;1.00;;;1.00;;
10523;SDS011;5310;48.638;9.060;2023-05-10T10:41:49;1.07;;;1.07;;
10523;SDS011;5310;48.638;9.060;2023-05-10T10:49:38;1.10;;;1.10;;
10523;SDS011;5310;48.638;9.060;2023-05-10T10:55:04;1.10;;;1.10;;
10523;SDS011;5310;48.638;9.060;2023-05-10T10:57:52;1.10;;;1.10;;
10523;SDS011;5310;48.638;9.060;2023-05-10T11:08:00;0.80;;;0.80;;
10523;SDS011;5310;48.638;9.060;2023-05-10T11:10:31;1.00;;;1.00;;
10523;SDS011;5310;48.638;9.060;2023-05-10T11:15:34;1.03;;;1.03;;
10523;SDS011;5310;48.638;9.060;2023-05-10T11:18:16;1.10;;;1.10;;
10523;SDS011;5310;48.638;9.060;2023-05-10T11:20:52;1.20;;;1.10;;
10523;SDS011;5310;48.638;9.060;2023-05-10T11:23:20;0.97;;;0.97;;
10523;SDS011;5310;48.638;9.060;2023-05-10T11:25:47;1.03;;;1.03;;
10523;SDS011;5310;48.638;9.060;2023-05-10T11:28:13;1.23;;;1.17;;
10523;SDS011;5310;48.638;9.060;2023-05-10T11:30:39;1.10;;;1.10;;
10523;SDS011;5310;48.638;9.060;2023-05-10T11:33:06;1.10;;;1.10;;
10523;SDS011;5310;48.638;9.060;2023-05-10T11:35:39;1.10;;;1.10;;
10523;SDS011;5310;48.638;9.060;2023-05-10T11:38:06;1.10;;;1.10;;
10523;SDS011;5310;48.638;9.060;2023-05-10T11:40:32;1.20;;;1.20;;
10523;SDS011;5310;48.638;9.060;2023-05-10T11:42:58;1.03;;;1.03;;
10523;SDS011;5310;48.638;9.060;2023-05-10T11:45:24;1.00;;;1.00;;
10523;SDS011;5310;48.638;9.060;2023-05-10T11:47:51;1.10;;;1.10;;
10523;SDS011;5310;48.638;9.060;2023-05-10T11:50:17;1.10;;;1.10;;
10523;SDS011;5310;48.638;9.060;2023-05-10T11:52:43;1.10;;;1.10;;
10523;SDS011;5310;48.638;9.060;2023-05-10T11:55:09;1.10;;;1.10;;
10523;SDS011;5310;48.638;9.060;2023-05-10T11:57:35;1.10;;;1.10;;
10523;SDS011;5310;48.638;9.060;2023-05-10T12:00:03;1.03;;;1.03;;
10523;SDS011;5310;48.638;9.060;2023-05-10T12:02:29;1.00;;;1.00;;
10523;SDS011;5310;48.638;9.060;2023-05-10T12:04:55;1.10;;;1.10;;
10523;SDS011;5310;48.638;9.060;2023-05-10T12:07:21;1.10;;;1.10;;
10523;SDS011;5310;48.638;9.060;2023-05-10T12:10:07;1.10;;;1.10;;
10523;SDS011;5310;48.638;9.060;2023-05-10T12:12:46;1.00;;;1.00;;
10523;SDS011;5310;48.638;9.060;2023-05-10T12:15:22;1.10;;;1.10;;
10523;SDS011;5310;48.638;9.060;2023-05-10T12:17:48;0.97;;;0.97;;
10523;SDS011;5310;48.638;9.060;2023-05-10T12:22:43;1.00;;;1.00;;
10523;SDS011;5310;48.638;9.060;2023-05-10T12:25:09;0.90;;;0.90;;
10523;SDS011;5310;48.638;9.060;2023-05-10T12:27:35;0.90;;;0.90;;
10523;SDS011;5310;48.638;9.060;2023-05-10T12:30:02;1.00;;;1.00;;
10523;SDS011;5310;48.638;9.060;2023-05-10T12:32:40;1.00;;;1.00;;
10523;SDS011;5310;48.638;9.060;2023-05-10T12:35:07;1.03;;;1.03;;
10523;SDS011;5310;48.638;9.060;2023-05-10T12:37:33;1.00;;;1.00;;
10523;SDS011;5310;48.638;9.060;2023-05-10T12:40:04;0.90;;;0.90;;
10523;SDS011;5310;48.638;9.060;2023-05-10T12:42:30;1.00;;;1.00;;
10523;SDS011;5310;48.638;9.060;2023-05-10T12:44:57;1.00;;;1.00;;
10523;SDS011;5310;48.638;9.060;2023-05-10T12:47:23;0.90;;;0.90;;
10523;SDS011;5310;48.638;9.060;2023-05-10T12:49:49;0.83;;;0.83;;
10523;SDS011;5310;48.638;9.060;2023-05-10T12:52:16;1.00;;;1.00;;
10523;SDS011;5310;48.638;9.060;2023-05-10T12:54:42;0.90;;;0.90;;
10523;SDS011;5310;48.638;9.060;2023-05-10T12:57:07;0.90;;;0.90;;
10523;SDS011;5310;48.638;9.060;2023-05-10T12:59:33;1.10;;;1.10;;
10523;SDS011;5310;48.638;9.060;2023-05-10T13:01:59;1.00;;;1.00;;
10523;SDS011;5310;48.638;9.060;2023-05-10T13:04:25;1.00;;;1.00;;
10523;SDS011;5310;48.638;9.060;2023-05-10T13:06:51;1.10;;;1.10;;
10523;SDS011;5310;48.638;9.060;2023-05-10T13:09:17;1.00;;;1.00;;
10523;SDS011;5310;48.638;9.060;2023-05-10T13:11:43;1.10;;;1.10;;
10523;SDS011;5310;48.638;9.060;2023-05-10T13:14:10;1.10;;;1.10;;
10523;SDS011;5310;48.638;9.060;2023-05-10T13:16:36;1.03;;;1.03;;
10523;SDS011;5310;48.638;9.060;2023-05-10T13:19:02;1.10;;;1.10;;
10523;SDS011;5310;48.638;9.060;2023-05-10T13:21:28;1.07;;;1.07;;
10523;SDS011;5310;48.638;9.060;2023-05-10T13:23:54;1.07;;;1.07;;
10523;SDS011;5310;48.638;9.060;2023-05-10T13:26:20;1.17;;;1.17;;
10523;SDS011;5310;48.638;9.060;2023-05-10T13:28:46;1.10;;;1.10;;
10523;SDS011;5310;48.638;9.060;2023-05-10T13:31:13;1.00;;;1.00;;
10523;SDS011;5310;48.638;9.060;2023-05-10T13:33:39;1.00;;;1.00;;
10523;SDS011;5310;48.638;9.060;2023-05-10T13:36:06;1.10;;;1.10;;
10523;SDS011;5310;48.638;9.060;2023-05-10T13:38:32;1.10;;;1.10;;
10523;SDS011;5310;48.638;9.060;2023-05-10T13:40:57;1.10;;;1.10;;
10523;SDS011;5310;48.638;9.060;2023-05-10T13:43:23;1.17;;;1.13;;
10523;SDS011;5310;48.638;9.060;2023-05-10T13:45:49;1.00;;;1.00;;
10523;SDS011;5310;48.638;9.060;2023-05-10T13:48:15;1.20;;;1.10;;
10523;SDS011;5310;48.638;9.060;2023-05-10T13:50:41;1.10;;;1.10;;
10523;SDS011;5310;48.638;9.060;2023-05-10T13:53:07;1.00;;;1.00;;
10523;SDS011;5310;48.638;9.060;2023-05-10T13:55:33;1.10;;;1.10;;
10523;SDS011;5310;48.638;9.060;2023-05-10T13:58:00;1.00;;;1.00;;
10523;SDS011;5310;48.638;9.060;2023-05-10T14:00:26;1.07;;;1.07;;
10523;SDS011;5310;48.638;9.060;2023-05-10T14:02:53;1.10;;;1.10;;
10523;SDS011;5310;48.638;9.060;2023-05-10T14:05:18;1.20;;;1.20;;
10523;SDS011;5310;48.638;9.060;2023-05-10T14:07:45;0.97;;;0.97;;
10523;SDS011;5310;48.638;9.060;2023-05-10T14:10:11;1.03;;;1.03;;
10523;SDS011;5310;48.638;9.060;2023-05-10T14:12:37;0.87;;;0.87;;
10523;SDS011;5310;48.638;9.060;2023-05-10T14:15:03;1.10;;;1.10;;
10523;SDS011;5310;48.638;9.060;2023-05-10T14:17:31;1.10;;;1.10;;
10523;SDS011;5310;48.638;9.060;2023-05-10T14:19:57;0.83;;;0.83;;
10523;SDS011;5310;48.638;9.060;2023-05-10T14:22:23;1.10;;;1.10;;
10523;SDS011;5310;48.638;9.060;2023-05-10T14:24:49;1.00;;;1.00;;
10523;SDS011;5310;48.638;9.060;2023-05-10T14:27:15;1.40;;;1.13;;
10523;SDS011;5310;48.638;9.060;2023-05-10T14:29:41;1.00;;;1.00;;
10523;SDS011;5310;48.638;9.060;2023-05-10T14:32:07;1.20;;;1.20;;
10523;SDS011;5310;48.638;9.060;2023-05-10T14:34:33;1.00;;;1.00;;
10523;SDS011;5310;48.638;9.060;2023-05-10T14:36:58;1.10;;;1.10;;
10523;SDS011;5310;48.638;9.060;2023-05-10T14:39:24;1.00;;;1.00;;
10523;SDS011;5310;48.638;9.060;2023-05-10T14:41:50;1.00;;;1.00;;
10523;SDS011;5310;48.638;9.060;2023-05-10T14:44:17;0.97;;;0.97;;
10523;SDS011;5310;48.638;9.060;2023-05-10T14:46:43;1.10;;;1.10;;
10523;SDS011;5310;48.638;9.060;2023-05-10T14:49:09;1.10;;;1.10;;
10523;SDS011;5310;48.638;9.060;2023-05-10T14:51:35;1.17;;;1.17;;
10523;SDS011;5310;48.638;9.060;2023-05-10T14:54:01;1.10;;;1.10;;
10523;SDS011;5310;48.638;9.060;2023-05-10T14:56:27;1.10;;;1.10;;
10523;SDS011;5310;48.638;9.060;2023-05-10T14:58:53;1.00;;;1.00;;
10523;SDS011;5310;48.638;9.060;2023-05-10T15:01:19;1.10;;;1.10;;
10523;SDS011;5310;48.638;9.060;2023-05-10T15:03:45;1.20;;;1.20;;
10523;SDS011;5310;48.638;9.060;2023-05-10T15:06:13;1.00;;;1.00;;
10523;SDS011;5310;48.638;9.060;2023-05-10T15:08:39;1.10;;;1.10;;
10523;SDS011;5310;48.638;9.060;2023-05-10T15:11:05;1.03;;;1.03;;
10523;SDS011;5310;48.638;9.060;2023-05-10T15:13:31;0.90;;;0.90;;
10523;SDS011;5310;48.638;9.060;2023-05-10T15:15:57;1.00;;;1.00;;
10523;SDS011;5310;48.638;9.060;2023-05-10T15:18:23;1.20;;;1.10;;
10523;SDS011;5310;48.638;9.060;2023-05-10T15:20:49;1.00;;;1.00;;
10523;SDS011;5310;48.638;9.060;2023-05-10T15:23:15;1.10;;;1.10;;
10523;SDS011;5310;48.638;9.060;2023-05-10T15:25:42;1.20;;;1.20;;
10523;SDS011;5310;48.638;9.060;2023-05-10T15:28:08;1.00;;;1.00;;
10523;SDS011;5310;48.638;9.060;2023-05-10T15:30:33;1.10;;;1.10;;
10523;SDS011;5310;48.638;9.060;2023-05-10T15:32:59;1.00;;;1.00;;
10523;SDS011;5310;48.638;9.060;2023-05-10T15:35:26;1.30;;;1.20;;
10523;SDS011;5310;48.638;9.060;2023-05-10T15:37:52;1.10;;;1.10;;